Time;durP1;ratioP1;P1;durP2;ratioP2;P2;SDS_P1;SDS_P2;PMS_P1;PMS_P2;Temp;Humidity;BMP_temperature;BMP_pressure;BME280_temperature;BME280_humidity;BME280_pressure;Samples;Min_cycle;Max_cycle;Signal;HPM_P1;HPM_P2
2022/01/12 00:02:59;;;;;;;28.55;11.05;;;1.30;56.80;;;-0.75;63.78;103271.94;8207792;28;20561;-86
2022/01/12 00:07:21;;;;;;;30.80;12.98;;;1.40;56.90;;;-0.65;63.64;103283.34;8215197;28;20027;-86
2022/01/12 00:11:42;;;;;;;21.73;11.10;;;1.10;56.90;;;-0.63;63.64;103274.03;8203706;28;20122;-87
2022/01/12 00:16:05;;;;;;;25.83;11.32;;;1.30;56.90;;;-0.85;63.47;103239.97;8212921;28;20050;-86
2022/01/12 00:20:27;;;;;;;26.75;12.73;;;1.30;57.00;;;-0.65;63.49;103273.09;8217164;28;20118;-86
2022/01/12 00:34:00;;;;;;;24.13;11.77;;;1.50;57.10;;;-0.58;63.84;103263.09;8218369;28;20423;-86
2022/01/12 00:38:25;;;;;;;28.17;12.27;;;1.20;57.00;;;-0.60;63.68;103251.88;8205647;28;20580;-85
2022/01/12 00:42:47;;;;;;;25.17;12.27;;;1.40;57.10;;;-0.50;63.63;103264.19;8204592;28;20126;-86
2022/01/12 00:47:10;;;;;;;26.75;12.05;;;1.40;57.10;;;-0.49;63.87;103271.09;8197694;28;20121;-86
2022/01/12 00:51:33;;;;;;;25.25;12.60;;;1.50;57.20;;;-0.57;63.64;103251.97;8195308;28;20133;-86
2022/01/12 00:55:56;;;;;;;30.73;14.82;;;1.50;57.20;;;-0.45;63.80;103259.22;8210204;28;20385;-85
2022/01/12 01:00:20;;;;;;;27.23;11.75;;;1.50;57.20;;;-0.60;63.77;103236.50;8203927;28;20122;-86
2022/01/12 01:04:42;;;;;;;28.25;12.85;;;1.50;57.10;;;-0.74;63.64;103223.22;8210162;28;20038;-86
2022/01/12 01:09:06;;;;;;;26.45;11.40;;;1.50;57.10;;;-0.58;63.70;103252.81;8194312;28;20125;-86
2022/01/12 01:13:42;;;;;;;25.33;11.85;;;1.50;57.10;;;-0.54;63.71;103269.19;8208141;28;20043;-86
2022/01/12 01:27:25;;;;;;;20.40;9.88;;;1.40;57.20;;;-0.67;63.65;103255.09;8197570;28;20113;-86
2022/01/12 01:31:48;;;;;;;22.15;10.32;;;1.50;57.30;;;-0.60;63.89;103240.75;8199628;28;20121;-87
2022/01/12 01:36:10;;;;;;;19.90;10.38;;;1.40;57.30;;;-0.49;63.56;103267.63;8200919;28;20047;-87
2022/01/12 01:40:36;;;;;;;19.98;9.90;;;1.30;57.30;;;-0.66;63.77;103238.88;8211951;28;20045;-86
2022/01/12 01:54:20;;;;;;;18.20;9.25;;;1.40;57.50;;;-0.60;64.05;103249.31;8211093;28;20047;-86
2022/01/12 01:58:44;;;;;;;21.23;9.48;;;1.30;57.40;;;-0.51;63.83;103259.91;8200183;28;20129;-86
2022/01/12 02:03:05;;;;;;;25.95;11.82;;;1.50;57.60;;;-0.71;63.66;103201.94;8197675;28;20041;-86
2022/01/12 02:07:35;;;;;;;24.02;9.93;;;1.50;57.70;;;-0.48;63.82;103246.28;8182732;28;20113;-83
2022/01/12 02:11:58;;;;;;;26.67;11.55;;;1.50;57.60;;;-0.51;64.09;103249.63;8184732;28;20130;-86
2022/01/12 02:16:31;;;;;;;19.98;9.10;;;1.60;57.80;;;-0.48;63.83;103252.28;8193798;28;20039;-86
2022/01/12 02:35:43;;;;;;;21.40;9.95;;;1.70;57.80;;;-0.33;63.88;103241.63;8201440;28;20061;-85
2022/01/12 02:40:10;;;;;;;18.95;8.48;;;1.70;57.80;;;-0.24;64.00;103251.31;8198379;28;20519;-85
2022/01/12 02:53:52;;;;;;;22.40;9.60;;;2.00;57.90;;;-0.24;64.20;103223.06;8195351;28;20035;-85
2022/01/12 02:58:14;;;;;;;27.45;11.32;;;1.80;57.80;;;-0.10;64.19;103250.03;8193625;28;20130;-85
2022/01/12 03:02:39;;;;;;;20.35;9.25;;;1.90;57.80;;;-0.21;64.13;103212.88;8214757;28;20038;-85
2022/01/12 03:07:06;;;;;;;23.57;9.73;;;1.90;57.80;;;-0.21;64.19;103212.03;8193245;28;20126;-85
2022/01/12 03:11:31;;;;;;;21.20;9.13;;;1.90;57.90;;;-0.04;63.80;103239.06;8190507;28;20031;-85
2022/01/12 03:15:58;;;;;;;22.35;9.30;;;1.90;57.90;;;-0.04;64.25;103244.19;8181428;28;20054;-85
2022/01/12 03:20:19;;;;;;;21.17;8.80;;;1.90;57.90;;;-0.26;64.09;103204.19;8214469;28;20130;-85
2022/01/12 03:24:42;;;;;;;26.15;9.30;;;2.00;57.90;;;0.07;64.15;103249.66;8199632;28;20126;-85
2022/01/12 03:29:05;;;;;;;22.70;10.35;;;2.00;58.00;;;-0.06;64.04;103220.16;8195761;28;20126;-85
2022/01/12 03:33:53;;;;;;;21.42;7.97;;;2.00;58.00;;;0.10;64.24;103237.75;8204886;28;20704;-85
2022/01/12 03:38:20;;;;;;;23.08;10.27;;;2.20;58.00;;;0.05;64.32;103228.16;8192604;28;20041;-85
2022/01/12 03:42:42;;;;;;;22.23;8.85;;;2.10;58.00;;;0.15;64.32;103243.03;8214806;28;20461;-85
2022/01/12 03:47:04;;;;;;;18.98;8.20;;;2.10;58.00;;;0.17;64.16;103239.69;8209678;28;20654;-85
2022/01/12 03:51:27;;;;;;;22.17;9.90;;;2.10;58.00;;;0.20;64.02;103246.59;8183928;28;20122;-85
2022/01/12 03:55:50;;;;;;;23.50;8.77;;;2.10;58.10;;;0.03;64.31;103216.97;8197025;28;20039;-85
2022/01/12 04:00:12;;;;;;;20.98;9.00;;;2.10;58.10;;;0.16;64.11;103226.78;8205936;28;20049;-85
2022/01/12 04:04:52;;;;;;;21.10;9.20;;;2.20;58.10;;;0.23;64.13;103231.28;8199910;28;20049;-86
2022/01/12 04:09:15;;;;;;;19.88;9.02;;;2.20;58.10;;;0.25;64.02;103232.19;8213072;28;20122;-85
2022/01/12 04:13:37;;;;;;;20.75;9.18;;;2.20;58.10;;;0.24;64.25;103230.44;8183707;28;20126;-85
2022/01/12 04:17:59;;;;;;;22.25;8.95;;;2.10;58.00;;;0.34;64.32;103241.84;8198072;28;20123;-85
2022/01/12 04:27:02;;;;;;;18.88;7.97;;;2.30;58.10;;;0.32;64.31;103244.38;8189792;28;20046;-85
2022/01/12 04:31:24;;;;;;;25.52;9.57;;;2.30;58.10;;;0.32;64.32;103228.94;8187673;28;20051;-85
2022/01/12 04:35:50;;;;;;;21.92;8.05;;;2.30;58.10;;;0.32;64.56;103225.50;8199714;28;20038;-85
2022/01/12 04:40:12;;;;;;;23.33;9.48;;;2.40;58.20;;;0.34;64.45;103217.00;8190268;28;20031;-85
2022/01/12 04:44:39;;;;;;;21.80;8.02;;;2.40;58.20;;;0.42;64.32;103220.66;8182723;28;20489;-85
2022/01/12 04:49:22;;;;;;;21.00;9.60;;;2.40;58.20;;;0.49;64.60;103231.09;8185237;28;20027;-84
2022/01/12 04:53:44;;;;;;;26.90;11.23;;;2.40;58.20;;;0.39;64.24;103214.59;8189660;28;20049;-85
2022/01/12 04:58:08;;;;;;;25.02;9.93;;;2.50;58.30;;;0.52;64.44;103229.50;8187222;28;20516;-85
2022/01/12 05:07:31;;;;;;;18.83;8.85;;;2.50;58.20;;;0.39;64.35;103209.44;8211695;28;20045;-85
2022/01/12 05:16:37;;;;;;;24.02;8.75;;;2.60;58.30;;;0.48;64.36;103227.66;8196931;28;20043;-85
2022/01/12 05:21:00;;;;;;;22.45;9.43;;;2.50;58.20;;;0.51;64.61;103224.31;8189326;28;20159;-85
2022/01/12 05:25:22;;;;;;;23.50;8.95;;;2.60;58.30;;;0.72;64.33;103255.75;8200545;28;20035;-85
2022/01/12 05:29:44;;;;;;;22.33;9.88;;;2.60;58.20;;;0.56;64.44;103222.75;8163913;28;20035;-84
2022/01/12 05:34:06;;;;;;;21.70;8.55;;;2.70;58.30;;;0.77;64.39;103254.16;8187883;28;20039;-84
2022/01/12 05:38:28;;;;;;;23.70;8.57;;;2.70;58.30;;;0.72;64.76;103242.00;8204061;28;20053;-85
2022/01/12 05:42:51;;;;;;;18.50;8.55;;;2.80;58.30;;;0.77;64.65;103233.59;8175758;28;20059;-85
2022/01/12 05:47:30;;;;;;;21.00;9.10;;;2.80;58.30;;;0.78;64.44;103222.47;8174745;28;20045;-85
2022/01/12 05:51:53;;;;;;;23.40;8.48;;;2.70;58.20;;;0.69;64.58;103199.09;8161146;28;20042;-84
2022/01/12 05:56:15;;;;;;;21.20;8.85;;;2.80;58.20;;;0.87;64.65;103237.28;8175499;28;20043;-84
2022/01/12 06:00:37;;;;;;;24.33;9.63;;;2.80;58.20;;;0.88;64.60;103229.59;8178318;28;20038;-85
2022/01/12 06:04:59;;;;;;;21.65;8.82;;;2.90;58.30;;;0.83;64.63;103208.03;8163977;29;20514;-85
2022/01/12 06:09:22;;;;;;;22.17;9.45;;;2.80;58.20;;;0.94;64.63;103217.72;8186575;28;20106;-86
2022/01/12 06:13:45;;;;;;;21.65;8.68;;;2.90;58.30;;;0.87;64.59;103202.13;8200640;28;20034;-85
2022/01/12 06:18:07;;;;;;;29.73;11.70;;;2.90;58.30;;;0.82;64.63;103184.84;8184682;28;20126;-85
2022/01/12 06:22:28;;;;;;;24.15;9.70;;;3.00;58.50;;;0.79;64.58;103177.94;8194721;28;20034;-85
2022/01/12 06:26:51;;;;;;;29.27;10.60;;;3.10;58.50;;;0.84;64.55;103186.63;8214537;28;20124;-85
2022/01/12 06:31:14;;;;;;;25.52;10.15;;;2.90;58.40;;;1.01;64.49;103222.19;8201388;28;20130;-82
2022/01/12 06:35:35;;;;;;;17.30;8.32;;;3.00;58.50;;;0.95;64.67;103215.19;8207536;28;20050;-85
2022/01/12 06:39:57;;;;;;;21.42;8.32;;;2.70;58.30;;;1.02;64.57;103224.78;8179008;28;20050;-85
2022/01/12 06:44:21;;;;;;;19.45;8.32;;;2.90;58.40;;;1.03;64.48;103228.25;8181013;28;20034;-85
2022/01/12 06:48:43;;;;;;;19.45;8.20;;;3.00;58.40;;;1.03;64.81;103215.38;8188742;28;20049;-85
2022/01/12 06:53:05;;;;;;;18.98;7.90;;;3.30;58.60;;;1.02;64.65;103217.06;8180880;28;20046;-85
2022/01/12 06:57:27;;;;;;;17.20;6.85;;;2.90;58.40;;;1.04;64.59;103225.69;8203924;28;20038;-84
2022/01/12 07:01:49;;;;;;;14.38;6.32;;;3.00;58.40;;;1.13;64.52;103248.22;8184738;28;20519;-84
2022/01/12 07:06:15;;;;;;;;;;;2.90;58.40;;;0.61;64.67;103149.19;8199718;28;20053;-84
2022/01/12 07:10:38;;;;;;;11.85;5.72;;;2.90;58.50;;;1.10;64.50;103241.28;8181865;28;19921;-84
2022/01/12 07:15:09;;;;;;;13.55;6.18;;;3.10;58.40;;;1.10;64.96;103241.28;8199348;28;20054;-85
2022/01/12 07:19:35;;;;;;;17.48;7.90;;;3.10;58.50;;;1.01;64.65;103227.34;8207778;28;20049;-84
2022/01/12 07:23:57;;;;;;;17.67;7.50;;;3.10;58.50;;;1.18;64.49;103249.19;8168817;29;20043;-85
2022/01/12 07:28:20;;;;;;;16.33;7.25;;;3.10;58.50;;;1.04;64.39;103228.28;8195419;28;20563;-84
2022/01/12 07:32:42;;;;;;;15.50;7.60;;;3.20;58.50;;;0.98;64.74;103206.69;8195065;28;20047;-84
2022/01/12 07:37:04;;;;;;;17.98;8.32;;;3.20;58.50;;;1.15;64.52;103237.97;8197966;28;20051;-84
2022/01/12 07:41:25;;;;;;;16.75;7.28;;;3.20;58.60;;;1.31;64.60;103252.94;8206700;28;20039;-85
2022/01/12 07:45:47;;;;;;;16.13;7.55;;;3.20;58.60;;;1.18;64.86;103230.31;8203531;28;20049;-84
2022/01/12 07:50:10;;;;;;;16.63;7.85;;;3.20;58.50;;;1.25;64.54;103239.94;8191298;28;20486;-84
2022/01/12 07:54:31;;;;;;;19.02;8.15;;;3.30;58.50;;;1.26;64.52;103245.09;8202698;28;20057;-84
2022/01/12 07:58:53;;;;;;;17.63;7.68;;;3.30;58.60;;;1.36;64.50;103271.09;8196828;28;20043;-84
2022/01/12 08:03:15;;;;;;;16.15;7.88;;;3.20;58.60;;;1.27;64.57;103256.25;8197054;28;20398;-84
2022/01/12 08:07:39;;;;;;;18.95;8.40;;;3.30;58.60;;;1.41;64.68;103274.63;8200106;28;20042;-84
2022/01/12 08:12:00;;;;;;;17.13;7.30;;;3.30;58.60;;;1.37;64.67;103268.53;8198424;28;20047;-84
2022/01/12 08:16:22;;;;;;;16.60;7.05;;;3.30;58.60;;;1.43;64.85;103257.50;8200323;28;20034;-85
2022/01/12 08:20:44;;;;;;;19.17;7.53;;;3.30;58.70;;;1.46;64.76;103268.75;8200608;28;20117;-85
2022/01/12 08:25:09;;;;;;;19.58;7.93;;;3.40;58.80;;;1.50;64.76;103277.41;8185932;28;20053;-85
2022/01/12 08:29:30;;;;;;;20.77;8.67;;;3.40;58.80;;;1.21;64.80;103220.97;8204935;28;20496;-84
2022/01/12 08:33:52;;;;;;;21.77;8.55;;;3.40;58.80;;;1.61;64.53;103273.38;8192825;28;20038;-85
2022/01/12 08:38:14;;;;;;;19.90;8.45;;;3.40;58.80;;;1.65;64.76;103282.94;8210592;28;20043;-85
2022/01/12 08:42:36;;;;;;;23.00;8.85;;;3.50;58.80;;;1.55;64.59;103266.41;8216327;28;20118;-85
2022/01/12 08:46:57;;;;;;;20.50;8.75;;;3.50;58.90;;;1.62;64.74;103272.56;8181295;28;20122;-84
2022/01/12 08:51:19;;;;;;;23.60;10.00;;;3.50;58.80;;;1.44;64.88;103223.22;8173303;28;20047;-84
2022/01/12 08:55:41;;;;;;;16.80;8.70;;;3.60;59.00;;;1.72;64.77;103273.63;8189557;28;20326;-84
2022/01/12 09:00:06;;;;;;;18.05;8.40;;;3.70;59.00;;;1.81;65.16;103279.00;8184569;28;20042;-84
2022/01/12 09:04:28;;;;;;;21.45;8.23;;;3.80;59.00;;;1.74;64.54;103270.25;8199559;28;20041;-84
2022/01/12 09:08:50;;;;;;;14.20;7.00;;;3.60;58.90;;;1.84;64.99;103281.66;8209189;28;20036;-84
2022/01/12 09:13:11;;;;;;;15.35;7.60;;;3.90;59.00;;;1.97;64.76;103291.41;8199515;28;20118;-87
2022/01/12 09:17:33;;;;;;;17.33;7.72;;;3.80;59.00;;;2.01;64.94;103288.88;8184451;28;20126;-87
2022/01/12 09:21:56;;;;;;;18.95;7.85;;;3.90;59.00;;;1.96;65.08;103265.59;8201436;28;20399;-86
2022/01/12 09:26:18;;;;;;;19.17;8.32;;;4.00;59.10;;;2.10;65.26;103291.66;8192042;28;20122;-85
2022/01/12 09:30:40;;;;;;;18.08;8.70;;;4.10;59.10;;;2.14;65.22;103291.75;8194821;28;20551;-85
2022/01/12 09:35:02;;;;;;;16.55;8.30;;;4.00;59.00;;;2.06;65.28;103256.34;8192831;28;20497;-85
2022/01/12 09:39:24;;;;;;;14.27;7.45;;;4.10;59.10;;;1.92;65.16;103226.00;8203817;28;20035;-85
2022/01/12 09:43:50;;;;;;;19.85;8.55;;;4.20;59.10;;;2.21;64.92;103261.81;8184332;28;20121;-86
2022/01/12 09:48:11;;;;;;;15.82;7.53;;;4.20;59.10;;;2.32;65.26;103275.81;8209529;28;20391;-86
2022/01/12 09:52:33;;;;;;;19.13;8.40;;;4.30;59.10;;;2.19;65.20;103241.16;8199753;28;20133;-86
2022/01/12 09:56:57;;;;;;;16.30;8.02;;;4.30;59.10;;;2.48;65.40;103270.94;8199729;28;20047;-86
2022/01/12 10:01:28;;;;;;;19.30;8.73;;;4.30;59.10;;;2.46;65.31;103245.13;8183880;28;20302;-85
2022/01/12 10:05:50;;;;;;;20.02;8.43;;;4.40;59.20;;;2.39;65.11;103225.22;8200819;28;20130;-86
2022/01/12 10:10:17;;;;;;;18.65;8.75;;;4.50;59.20;;;2.55;65.25;103237.56;8197062;28;20489;-86
2022/01/12 10:15:02;;;;;;;16.85;7.97;;;4.50;59.20;;;2.65;65.04;103242.06;8200160;28;20118;-86
2022/01/12 10:19:31;;;;;;;21.05;8.35;;;4.60;59.30;;;2.67;65.17;103231.75;8207894;28;20037;-86
2022/01/12 10:24:07;;;;;;;17.60;8.02;;;4.60;59.30;;;2.58;65.27;103211.81;8211959;28;20109;-85
2022/01/12 10:28:29;;;;;;;18.77;8.65;;;4.70;59.30;;;2.85;65.45;103237.25;8184575;29;20102;-85
2022/01/12 10:33:02;;;;;;;18.85;8.63;;;4.70;59.20;;;2.81;65.31;103219.13;8195484;28;20125;-85
2022/01/12 10:37:27;;;;;;;17.25;7.72;;;4.70;59.30;;;2.87;65.38;103222.66;8204990;28;20041;-85
2022/01/12 10:42:05;;;;;;;21.90;8.50;;;4.80;59.30;;;2.77;65.30;103202.69;8191943;28;20119;-85
2022/01/12 10:46:30;;;;;;;23.98;9.75;;;4.90;59.40;;;3.05;65.33;103240.19;8199724;28;20126;-85
2022/01/12 10:50:57;;;;;;;18.25;8.93;;;5.00;59.40;;;3.06;65.29;103234.16;8204176;28;20114;-85
2022/01/12 10:55:19;;;;;;;19.27;9.85;;;5.00;59.40;;;2.90;65.37;103190.88;8207202;28;20046;-86
2022/01/12 10:59:41;;;;;;;22.10;10.05;;;5.10;59.40;;;3.12;65.37;103212.75;8205593;28;20126;-85
2022/01/12 11:04:03;;;;;;;21.83;9.25;;;5.10;59.40;;;3.21;65.33;103217.19;8196040;28;20445;-85
2022/01/12 11:08:27;;;;;;;20.65;8.70;;;5.20;59.40;;;3.27;65.31;103217.28;8184116;29;20134;-85
2022/01/12 11:12:50;;;;;;;21.15;9.30;;;5.10;59.40;;;3.27;65.20;103210.41;8188532;28;20117;-85
2022/01/12 11:17:12;;;;;;;25.08;10.23;;;5.30;59.50;;;3.40;65.82;103220.91;8210721;28;20408;-85
2022/01/12 11:21:43;;;;;;;19.48;9.23;;;5.30;59.50;;;3.36;65.57;103209.66;8219592;28;20560;-85
2022/01/12 11:26:21;;;;;;;23.58;10.20;;;5.40;59.50;;;3.57;65.41;103239.25;8203679;28;20118;-85
2022/01/12 11:30:58;;;;;;;22.25;9.27;;;5.40;59.60;;;3.60;65.53;103223.78;8205559;28;20507;-85
2022/01/12 11:35:29;;;;;;;21.48;9.48;;;5.50;59.50;;;3.36;65.31;103164.91;8202542;28;20031;-85
2022/01/12 11:39:51;;;;;;;22.50;9.93;;;5.50;59.50;;;3.51;65.32;103178.91;8189670;28;20131;-84
2022/01/12 11:44:20;;;;;;;18.98;8.57;;;6.00;59.70;;;3.73;65.63;103217.97;8200962;28;20548;-85
2022/01/12 11:48:54;;;;;;;19.63;9.18;;;5.70;59.50;;;3.69;65.60;103209.28;8186502;28;20125;-85
2022/01/12 11:53:20;;;;;;;16.88;8.90;;;5.70;59.50;;;3.85;65.43;103214.66;8194556;28;20043;-85
2022/01/12 11:57:50;;;;;;;17.75;7.93;;;5.70;59.50;;;3.74;65.35;103193.84;8179466;28;20054;-85
2022/01/12 12:02:16;;;;;;;19.25;8.57;;;5.80;59.50;;;3.87;65.33;103218.13;8169440;28;20039;-85
2022/01/12 12:06:38;;;;;;;14.60;7.82;;;5.90;59.50;;;3.99;65.28;103234.66;8210725;28;20045;-85
2022/01/12 12:11:00;;;;;;;16.77;8.52;;;5.80;59.40;;;3.99;65.56;103218.28;8187442;28;20495;-85
2022/01/12 12:15:23;;;;;;;16.75;8.50;;;5.90;59.50;;;3.98;65.65;103217.41;8202640;28;20049;-85
2022/01/12 12:19:46;;;;;;;16.90;8.15;;;6.00;59.50;;;4.07;65.26;103223.53;8187373;28;20549;-85
2022/01/12 12:24:12;;;;;;;15.48;8.23;;;5.90;59.50;;;4.17;65.44;103235.75;8188009;28;20125;-85
2022/01/12 12:28:34;;;;;;;17.58;8.27;;;6.00;59.50;;;4.13;65.55;103210.69;8210868;28;20505;-86
2022/01/12 12:33:04;;;;;;;17.17;7.60;;;6.00;59.50;;;4.21;65.50;103222.88;8187549;28;20129;-85
2022/01/12 12:37:35;;;;;;;17.33;9.02;;;6.10;59.60;;;4.27;65.26;103229.84;8185362;28;20419;-86
2022/01/12 12:41:59;;;;;;;14.48;7.30;;;6.20;59.60;;;4.28;65.28;103210.88;8202168;28;20126;-85
2022/01/12 12:46:25;;;;;;;16.98;8.43;;;6.20;59.50;;;4.37;65.58;103234.22;8200327;28;20042;-86
2022/01/12 12:50:56;;;;;;;16.00;8.02;;;6.30;59.70;;;4.33;65.68;103222.13;8205243;28;20117;-86
2022/01/12 12:55:18;;;;;;;15.05;8.10;;;6.30;59.60;;;4.39;65.41;103219.59;8194964;28;20049;-85
2022/01/12 12:59:40;;;;;;;15.27;7.25;;;6.20;59.60;;;4.42;65.06;103229.13;8191704;29;20473;-83
2022/01/12 13:04:02;;;;;;;14.88;8.05;;;6.30;59.70;;;4.51;65.21;103236.09;8186625;28;20577;-89
2022/01/12 13:08:24;;;;;;;14.30;7.70;;;6.40;59.70;;;4.46;65.79;103225.72;8212427;28;20113;-85
2022/01/12 13:12:56;;;;;;;15.52;8.73;;;6.30;59.70;;;4.52;65.42;103240.44;8171478;28;20038;-84
2022/01/12 13:17:26;;;;;;;17.10;8.88;;;6.40;59.80;;;4.56;65.15;103248.25;8194211;28;20051;-88
2022/01/12 13:21:49;;;;;;;14.60;7.80;;;6.40;59.80;;;4.45;65.54;103221.38;8182028;28;20559;-83
2022/01/12 13:26:21;;;;;;;16.35;8.57;;;6.50;60.30;;;4.33;65.29;103185.91;8189524;28;20055;-83
2022/01/12 13:30:51;;;;;;;17.70;9.15;;;6.50;59.80;;;4.56;65.41;103227.53;8201216;28;20046;-85
2022/01/12 13:35:13;;;;;;;12.98;7.00;;;6.50;59.80;;;4.46;65.53;103191.25;8187792;28;20039;-84
2022/01/12 13:39:35;;;;;;;15.57;8.85;;;6.50;59.80;;;4.74;65.62;103241.53;8169582;28;20038;-85
2022/01/12 13:44:07;;;;;;;14.20;8.23;;;6.50;59.80;;;4.71;65.32;103226.84;8184513;28;20035;-85
2022/01/12 13:48:31;;;;;;;17.25;9.70;;;6.60;59.90;;;4.69;65.37;103199.22;8173910;28;20035;-85
2022/01/12 13:52:54;;;;;;;13.40;7.95;;;6.80;60.00;;;4.69;65.46;103207.84;8176138;28;20046;-85
2022/01/12 13:57:20;;;;;;;18.10;7.72;;;6.60;59.90;;;4.75;65.62;103213.09;8189686;28;20039;-85
2022/01/12 14:01:43;;;;;;;17.17;8.13;;;6.70;59.90;;;4.79;65.63;103220.00;8166505;28;20035;-85
2022/01/12 14:06:15;;;;;;;17.40;8.30;;;6.70;59.90;;;4.87;65.40;103223.53;8192122;28;20047;-85
2022/01/12 14:10:40;;;;;;;18.73;8.55;;;6.60;59.90;;;4.87;65.70;103218.34;8192950;28;20410;-85
2022/01/12 14:15:06;;;;;;;15.45;8.18;;;6.70;59.90;;;4.73;65.63;103182.88;8193924;28;20043;-86
2022/01/12 14:19:28;;;;;;;17.83;8.40;;;6.70;59.90;;;4.91;65.61;103221.84;8203080;28;20061;-85
2022/01/12 14:23:49;;;;;;;17.00;8.10;;;6.70;59.90;;;4.81;65.15;103201.91;8185665;28;20041;-85
2022/01/12 14:28:26;;;;;;;17.10;8.55;;;6.70;60.00;;;4.82;65.34;103216.59;8182829;28;20526;-84
2022/01/12 14:32:50;;;;;;;19.08;8.90;;;6.70;60.00;;;4.44;65.31;103155.84;8182965;28;20053;-84
2022/01/12 14:37:12;;;;;;;18.30;8.23;;;6.90;60.20;;;4.86;65.22;103231.28;8187443;28;20043;-85
2022/01/12 14:41:34;;;;;;;17.73;8.23;;;6.90;60.20;;;4.92;65.17;103231.34;8194673;28;20043;-84
2022/01/12 14:45:57;;;;;;;22.38;9.13;;;6.70;60.00;;;4.94;65.36;103247.78;8168600;28;20077;-85
2022/01/12 14:50:20;;;;;;;19.02;8.65;;;6.70;60.00;;;4.85;65.48;103240.78;8195836;28;20043;-85
2022/01/12 14:54:47;;;;;;;19.25;8.10;;;6.70;60.00;;;4.97;65.66;103254.69;8190794;28;20043;-85
2022/01/12 14:59:09;;;;;;;18.45;9.20;;;6.80;60.10;;;4.88;65.17;103240.78;8195097;28;20042;-85
2022/01/12 15:03:31;;;;;;;18.20;8.20;;;6.70;60.10;;;4.99;65.81;103258.16;8167960;28;20123;-85
2022/01/12 15:07:54;;;;;;;19.20;8.40;;;6.70;60.20;;;4.87;65.73;103243.38;8198128;28;20038;-85
2022/01/12 15:12:24;;;;;;;16.73;8.18;;;6.60;60.10;;;5.01;65.70;103262.50;8193216;28;20053;-85
2022/01/12 15:16:46;;;;;;;22.45;8.50;;;6.80;60.30;;;5.03;65.35;103262.53;8186367;28;20034;-85
2022/01/12 15:21:07;;;;;;;26.25;9.10;;;6.80;60.30;;;4.95;65.38;103246.91;8181849;28;20050;-85
2022/01/12 15:25:29;;;;;;;17.15;8.35;;;6.80;60.40;;;5.03;65.30;103272.88;8173644;28;20041;-85
2022/01/12 15:29:52;;;;;;;16.00;7.65;;;6.80;60.50;;;5.04;65.47;103277.19;8193443;28;21359;-85
2022/01/12 15:34:14;;;;;;;15.30;7.75;;;6.80;60.50;;;4.96;65.36;103261.59;8192133;28;20181;-85
2022/01/12 15:38:37;;;;;;;18.05;8.50;;;6.60;60.40;;;5.02;65.53;103271.13;8192785;28;20043;-85
2022/01/12 15:42:58;;;;;;;19.13;9.02;;;6.70;60.40;;;5.11;65.31;103273.81;8176340;28;20035;-85
2022/01/12 15:47:20;;;;;;;24.00;9.82;;;6.80;60.50;;;5.06;65.24;103271.19;8185237;28;20039;-84
2022/01/12 15:51:42;;;;;;;20.50;9.23;;;6.90;60.70;;;5.06;65.49;103270.31;8193967;28;20474;-83
2022/01/12 15:56:06;;;;;;;18.83;9.23;;;6.90;60.70;;;5.01;65.64;103253.88;8191861;28;20655;-82
2022/01/12 16:00:28;;;;;;;16.23;7.90;;;6.90;60.70;;;4.95;65.66;103238.28;8192858;28;20035;-83
2022/01/12 16:04:50;;;;;;;13.68;7.78;;;6.90;60.70;;;5.09;65.42;103270.34;8186676;28;20525;-83
2022/01/12 16:09:12;;;;;;;16.65;8.75;;;6.90;60.90;;;5.08;65.89;103268.63;8191205;28;20043;-86
2022/01/12 16:13:35;;;;;;;16.23;8.15;;;6.70;60.80;;;5.17;65.78;103267.81;8165235;28;20039;-82
2022/01/12 16:17:56;;;;;;;14.15;7.63;;;6.90;60.90;;;4.97;65.66;103236.56;8203212;28;20070;-82
2022/01/12 16:22:19;;;;;;;14.13;7.55;;;6.90;60.90;;;5.19;65.34;103266.97;8183073;28;20530;-84
2022/01/12 16:26:42;;;;;;;14.52;7.60;;;6.90;61.00;;;5.15;66.13;103285.91;8179013;28;20039;-84
2022/01/12 16:31:17;;;;;;;13.85;7.53;;;6.90;61.00;;;5.20;65.85;103279.06;8214833;28;20064;-85
2022/01/12 16:35:39;;;;;;;14.13;7.70;;;6.90;60.90;;;5.25;65.48;103295.50;8196222;28;20244;-84
2022/01/12 16:40:09;;;;;;;13.85;7.68;;;7.00;61.10;;;5.31;65.74;103313.69;8205655;28;20047;-85
2022/01/12 16:44:31;;;;;;;13.05;7.47;;;7.10;61.10;;;5.25;65.81;103303.28;8200277;28;20031;-83
2022/01/12 16:48:54;;;;;;;9.75;6.38;;;7.00;60.90;;;5.35;65.66;103313.72;8192645;28;20043;-84
2022/01/12 16:53:17;;;;;;;15.70;8.10;;;7.00;60.80;;;5.30;65.40;103283.47;8183381;28;20047;-84
2022/01/12 16:57:39;;;;;;;13.70;7.50;;;7.00;60.80;;;5.33;65.56;103291.25;8187274;28;20039;-84
2022/01/12 17:02:00;;;;;;;11.43;7.28;;;7.10;60.90;;;5.35;66.06;103287.81;8178720;28;20049;-84
2022/01/12 17:06:22;;;;;;;9.35;6.25;;;7.00;60.80;;;5.18;65.71;103283.34;8179161;28;20043;-84
2022/01/12 17:10:44;;;;;;;11.80;6.93;;;7.10;60.80;;;5.22;65.84;103295.50;8176767;29;20047;-84
2022/01/12 17:15:27;;;;;;;10.88;7.22;;;7.00;60.70;;;5.26;65.90;103307.59;8190069;28;20049;-84
2022/01/12 17:19:50;;;;;;;10.85;7.25;;;7.00;60.70;;;5.17;65.99;103292.00;8192081;28;20456;-83
2022/01/12 17:24:25;;;;;;;10.18;6.70;;;7.00;60.50;;;5.22;65.52;103305.84;8163137;28;20500;-83
2022/01/12 17:28:49;;;;;;;12.50;7.45;;;7.00;60.40;;;5.14;65.55;103299.72;8188632;28;20039;-84
2022/01/12 17:33:11;;;;;;;10.93;6.55;;;6.90;60.30;;;5.22;65.59;103321.41;8184240;28;20047;-82
2022/01/12 17:37:34;;;;;;;9.13;6.60;;;6.90;60.20;;;5.13;65.48;103292.84;8177497;28;20042;-83
2022/01/12 17:42:03;;;;;;;8.80;6.60;;;6.90;60.10;;;5.17;65.57;103298.91;8168472;28;20061;-85
2022/01/12 17:46:25;;;;;;;12.25;8.38;;;6.90;60.00;;;4.88;65.73;103256.31;8184515;28;20495;-84
2022/01/12 17:50:47;;;;;;;10.70;7.05;;;6.90;60.00;;;5.16;65.56;103300.63;8202110;28;20396;-83
2022/01/12 17:55:13;;;;;;;10.55;6.72;;;6.80;59.80;;;5.07;65.63;103298.78;8184226;28;20049;-83
2022/01/12 17:59:35;;;;;;;10.32;6.32;;;6.70;59.70;;;5.00;65.66;103291.84;8186543;28;20039;-83
2022/01/12 18:03:56;;;;;;;7.97;5.57;;;6.90;59.80;;;5.07;65.35;103313.47;8192927;28;20045;-83
2022/01/12 18:08:18;;;;;;;8.65;5.95;;;6.90;59.80;;;5.18;65.54;103322.19;8171016;28;20049;-83
2022/01/12 18:12:43;;;;;;;9.88;6.22;;;6.90;59.70;;;5.16;65.54;103328.22;8188630;28;20037;-83
2022/01/12 18:17:06;;;;;;;14.00;8.00;;;6.90;59.80;;;5.11;65.72;103317.84;8200702;28;20049;-83
2022/01/12 18:21:27;;;;;;;9.15;5.88;;;6.90;59.70;;;5.13;65.73;103326.50;8198004;28;20035;-83
2022/01/12 18:25:49;;;;;;;11.07;6.82;;;6.90;59.70;;;5.04;65.57;103311.72;8194519;28;20035;-83
2022/01/12 18:30:12;;;;;;;9.98;6.63;;;6.90;59.70;;;5.13;65.84;103333.38;8178710;28;20043;-83
2022/01/12 18:34:35;;;;;;;11.35;6.32;;;6.90;59.70;;;5.05;65.66;103329.00;8184980;28;20042;-83
2022/01/12 18:38:56;;;;;;;9.25;6.30;;;6.90;59.70;;;5.11;65.09;103335.97;8182418;28;20050;-84
2022/01/12 18:43:19;;;;;;;8.35;5.82;;;6.90;59.70;;;5.04;65.39;103335.03;8192648;28;20045;-83
2022/01/12 18:47:41;;;;;;;9.98;6.80;;;6.90;59.70;;;4.99;65.64;103326.34;8172550;28;20584;-83
2022/01/12 18:52:04;;;;;;;10.07;6.53;;;6.80;59.70;;;5.11;65.68;103330.78;8189939;28;20048;-83
2022/01/12 18:56:26;;;;;;;10.68;6.20;;;6.90;59.70;;;5.17;65.71;103337.75;8179878;28;20035;-83
2022/01/12 19:00:48;;;;;;;11.43;6.80;;;6.90;59.70;;;5.19;65.61;103338.63;8189590;28;20041;-83
2022/01/12 19:05:11;;;;;;;10.30;6.45;;;6.90;59.70;;;5.17;65.33;103341.19;8192646;28;20038;-83
2022/01/12 19:09:32;;;;;;;9.35;6.47;;;6.90;59.70;;;5.18;65.52;103358.47;8203552;28;20049;-83
2022/01/12 19:14:01;;;;;;;11.50;7.75;;;6.90;59.70;;;5.05;65.74;103336.78;8196072;28;20047;-83
2022/01/12 19:18:24;;;;;;;8.98;6.43;;;6.90;59.70;;;5.17;65.23;103355.88;8180179;28;20423;-83
2022/01/12 19:22:46;;;;;;;11.05;7.32;;;6.90;59.70;;;5.20;65.36;103346.41;8214182;28;20039;-83
2022/01/12 19:27:07;;;;;;;10.55;7.07;;;7.00;59.70;;;5.14;65.38;103310.09;8196359;28;20045;-83
2022/01/12 19:31:29;;;;;;;10.98;7.75;;;6.90;59.60;;;5.18;65.30;103317.03;8190708;28;20042;-85
2022/01/12 19:35:51;;;;;;;9.02;6.97;;;6.90;59.60;;;5.18;65.63;103298.03;8197474;28;20724;-82